Time;durP1;ratioP1;P1;durP2;ratioP2;P2;SDS_P1;SDS_P2;PMS_P1;PMS_P2;Temp;Humidity;BMP_temperature;BMP_pressure;BME280_temperature;BME280_humidity;BME280_pressure;Samples;Min_cycle;Max_cycle;Signal;HPM_P1;HPM_P2
2021/04/12 00:02:01;;;;;;;7.17;6.67;;;;;;;;;;4947102;28;20212;-67
2021/04/12 00:04:35;;;;;;;8.13;7.53;;;;;;;;;;4948979;28;20218;-66
2021/04/12 00:07:06;;;;;;;7.30;6.70;;;;;;;;;;4951628;28;20190;-68
2021/04/12 00:09:35;;;;;;;6.70;6.20;;;;;;;;;;4949706;28;20203;-65
2021/04/12 00:12:09;;;;;;;6.40;5.90;;;;;;;;;;4949902;28;20228;-65
2021/04/12 00:14:42;;;;;;;6.47;5.97;;;;;;;;;;4951939;28;20754;-67
2021/04/12 00:17:10;;;;;;;5.03;4.63;;;;;;;;;;4949793;28;20204;-66
2021/04/12 00:19:42;;;;;;;5.70;5.30;;;;;;;;;;4949500;28;20235;-67
2021/04/12 00:22:31;;;;;;;5.57;5.17;;;;;;;;;;4951266;28;20204;-67
2021/04/12 00:25:00;;;;;;;6.13;5.70;;;;;;;;;;4952581;28;20244;-67
2021/04/12 00:27:45;;;;;;;5.70;5.30;;;;;;;;;;4950405;28;20580;-66
2021/04/12 00:30:26;;;;;;;4.90;4.60;;;;;;;;;;4946074;28;20267;-67
2021/04/12 00:32:56;;;;;;;4.73;4.43;;;;;;;;;;4963654;28;20204;-67
2021/04/12 00:35:33;;;;;;;5.40;5.00;;;;;;;;;;4949137;28;20684;-67
2021/04/12 00:38:05;;;;;;;5.33;4.93;;;;;;;;;;4947758;28;20198;-67
2021/04/12 00:40:38;;;;;;;5.43;5.03;;;;;;;;;;4945805;28;20217;-67
2021/04/12 00:43:07;;;;;;;5.50;5.10;;;;;;;;;;4947776;28;20203;-67
2021/04/12 00:45:45;;;;;;;5.40;5.00;;;;;;;;;;4944735;28;20221;-67
2021/04/12 00:48:26;;;;;;;5.00;4.70;;;;;;;;;;4945206;28;20600;-67
2021/04/12 00:51:11;;;;;;;5.00;4.60;;;;;;;;;;4948991;28;20209;-67
2021/04/12 00:53:55;;;;;;;5.70;5.30;;;;;;;;;;4941359;28;20198;-67
2021/04/12 00:56:36;;;;;;;5.53;5.13;;;;;;;;;;4949410;28;20204;-66
2021/04/12 00:59:10;;;;;;;6.43;5.93;;;;;;;;;;4945670;28;20286;-67
2021/04/12 01:01:44;;;;;;;6.70;6.20;;;;;;;;;;4947050;28;20292;-67
2021/04/12 01:04:10;;;;;;;6.47;5.97;;;;;;;;;;4946197;28;20222;-67
2021/04/12 01:07:00;;;;;;;6.80;6.30;;;;;;;;;;4947292;28;20201;-66
2021/04/12 01:09:44;;;;;;;6.07;5.57;;;;;;;;;;4947395;28;20200;-67
2021/04/12 01:12:29;;;;;;;6.30;5.80;;;;;;;;;;4947283;28;20222;-66
2021/04/12 01:15:09;;;;;;;7.27;6.67;;;;;;;;;;4949785;28;20199;-67
2021/04/12 01:17:38;;;;;;;6.80;6.20;;;;;;;;;;4948034;28;20192;-67
2021/04/12 01:20:22;;;;;;;5.93;5.53;;;;;;;;;;4946857;28;20192;-67
2021/04/12 01:23:07;;;;;;;6.87;6.27;;;;;;;;;;4948263;28;20841;-66
2021/04/12 01:25:48;;;;;;;7.17;6.57;;;;;;;;;;4948401;28;20215;-67
2021/04/12 01:28:17;;;;;;;6.27;5.77;;;;;;;;;;4950225;28;20194;-67
2021/04/12 01:30:57;;;;;;;6.83;6.33;;;;;;;;;;4942609;28;20222;-66
2021/04/12 01:33:33;;;;;;;6.93;6.33;;;;;;;;;;4947958;28;20272;-68
2021/04/12 01:36:18;;;;;;;7.50;6.90;;;;;;;;;;4945497;28;20275;-65
2021/04/12 01:39:04;;;;;;;6.80;6.30;;;;;;;;;;4945785;29;20208;-68
2021/04/12 01:41:30;;;;;;;7.40;6.70;;;;;;;;;;4940707;28;20220;-67
2021/04/12 01:44:05;;;;;;;7.60;7.00;;;;;;;;;;4945714;28;20214;-68
2021/04/12 01:46:32;;;;;;;6.97;6.47;;;;;;;;;;4946245;28;20250;-69
2021/04/12 01:49:15;;;;;;;8.07;7.37;;;;;;;;;;4948586;28;20562;-67
2021/04/12 01:51:44;;;;;;;7.97;7.30;;;;;;;;;;4950890;28;20203;-68
2021/04/12 01:54:28;;;;;;;7.67;6.97;;;;;;;;;;4946227;28;20225;-68
2021/04/12 01:57:30;;;;;;;7.70;7.10;;;;;;;;;;4944263;28;20222;-68
2021/04/12 02:00:15;;;;;;;7.60;6.90;;;;;;;;;;4964504;28;20334;-67
2021/04/12 02:02:45;;;;;;;8.47;7.70;;;;;;;;;;4965500;28;20555;-67
2021/04/12 02:05:11;;;;;;;7.63;7.03;;;;;;;;;;4962808;28;20245;-67
2021/04/12 02:07:43;;;;;;;7.50;6.90;;;;;;;;;;4964364;28;20257;-66
2021/04/12 02:10:25;;;;;;;7.93;7.23;;;;;;;;;;4965212;28;20716;-67
2021/04/12 02:13:01;;;;;;;8.43;7.73;;;;;;;;;;4948823;28;20201;-67
2021/04/12 02:15:46;;;;;;;7.83;7.13;;;;;;;;;;4965460;28;20751;-67
2021/04/12 02:18:35;;;;;;;8.20;7.50;;;;;;;;;;4945379;28;20193;-66
2021/04/12 02:21:25;;;;;;;8.10;7.30;;;;;;;;;;4964862;28;20246;-67
2021/04/12 02:24:05;;;;;;;8.47;7.77;;;;;;;;;;4960219;28;20215;-67
2021/04/12 02:26:43;;;;;;;8.10;7.40;;;;;;;;;;4964551;28;20749;-67
2021/04/12 02:29:24;;;;;;;7.40;6.80;;;;;;;;;;4961777;28;20194;-66
2021/04/12 02:32:05;;;;;;;8.40;7.70;;;;;;;;;;4959658;28;20231;-67
2021/04/12 02:34:52;;;;;;;8.50;7.80;;;;;;;;;;4952666;28;20755;-67
2021/04/12 02:37:35;;;;;;;8.10;7.40;;;;;;;;;;4946222;28;20190;-67
2021/04/12 02:40:07;;;;;;;7.97;7.37;;;;;;;;;;4948744;28;20207;-66
2021/04/12 02:42:52;;;;;;;8.33;7.63;;;;;;;;;;4943837;28;20277;-67
2021/04/12 02:45:26;;;;;;;7.77;7.13;;;;;;;;;;4947949;28;20214;-67
2021/04/12 02:48:00;;;;;;;9.43;8.63;;;;;;;;;;4949602;29;20209;-68
2021/04/12 02:50:29;;;;;;;8.57;7.87;;;;;;;;;;4948592;28;20286;-66
2021/04/12 02:53:03;;;;;;;9.60;8.80;;;;;;;;;;4946373;28;20253;-66
2021/04/12 02:55:29;;;;;;;8.87;8.07;;;;;;;;;;4949192;28;20190;-66
2021/04/12 02:57:55;;;;;;;8.23;7.43;;;;;;;;;;4950672;28;20241;-66
2021/04/12 03:00:41;;;;;;;9.00;8.30;;;;;;;;;;4947895;28;20234;-67
2021/04/12 03:03:07;;;;;;;9.80;8.90;;;;;;;;;;4959334;28;20210;-67
2021/04/12 03:05:48;;;;;;;9.30;8.50;;;;;;;;;;4960961;28;20227;-67
2021/04/12 03:08:33;;;;;;;10.23;9.30;;;;;;;;;;4948261;28;20188;-67
2021/04/12 03:11:11;;;;;;;10.27;9.37;;;;;;;;;;4968206;28;20213;-67
2021/04/12 03:14:02;;;;;;;10.93;9.93;;;;;;;;;;4947578;28;20269;-66
2021/04/12 03:16:34;;;;;;;10.10;9.17;;;;;;;;;;4947206;28;20201;-66
2021/04/12 03:19:19;;;;;;;10.43;9.53;;;;;;;;;;4944973;28;20193;-67
2021/04/12 03:21:48;;;;;;;10.30;9.30;;;;;;;;;;4954227;28;20211;-67
2021/04/12 03:24:32;;;;;;;11.03;10.03;;;;;;;;;;4957648;28;20214;-67
2021/04/12 03:27:04;;;;;;;10.43;9.53;;;;;;;;;;4957727;28;20671;-67
2021/04/12 03:29:33;;;;;;;10.67;9.67;;;;;;;;;;4957701;28;20191;-67
2021/04/12 03:32:07;;;;;;;11.37;10.23;;;;;;;;;;4962604;28;20295;-66
2021/04/12 03:34:33;;;;;;;11.83;10.80;;;;;;;;;;4957549;28;20210;-66
2021/04/12 03:37:04;;;;;;;10.80;9.70;;;;;;;;;;4961377;28;20229;-66
2021/04/12 03:39:37;;;;;;;10.90;9.90;;;;;;;;;;4959245;28;20229;-67
2021/04/12 03:42:06;;;;;;;10.37;9.43;;;;;;;;;;4962521;28;20267;-67
2021/04/12 03:44:51;;;;;;;10.53;9.43;;;;;;;;;;4962399;28;20208;-65
2021/04/12 03:47:17;;;;;;;10.67;9.77;;;;;;;;;;4963851;28;20196;-66
2021/04/12 03:49:43;;;;;;;10.93;9.83;;;;;;;;;;4961368;28;20900;-66
2021/04/12 03:52:15;;;;;;;11.23;10.03;;;;;;;;;;4962160;28;20208;-67
2021/04/12 03:54:41;;;;;;;10.17;9.27;;;;;;;;;;4964072;28;20192;-69
2021/04/12 03:57:14;;;;;;;11.10;9.87;;;;;;;;;;4962524;28;20340;-69
2021/04/12 03:59:45;;;;;;;10.03;9.03;;;;;;;;;;4961380;28;20193;-67
2021/04/12 04:02:21;;;;;;;11.20;10.03;;;;;;;;;;4951883;29;20215;-67
2021/04/12 04:04:56;;;;;;;11.07;10.07;;;;;;;;;;4954178;28;20217;-67
2021/04/12 04:07:28;;;;;;;11.70;10.60;;;;;;;;;;4954899;28;20193;-67
2021/04/12 04:10:13;;;;;;;10.53;9.53;;;;;;;;;;4952171;28;20199;-68
2021/04/12 04:12:50;;;;;;;11.70;10.50;;;;;;;;;;4950362;28;20252;-67
2021/04/12 04:15:32;;;;;;;13.70;10.80;;;;;;;;;;4950602;28;20262;-69
2021/04/12 04:18:07;;;;;;;11.53;10.33;;;;;;;;;;4950416;28;20266;-67
2021/04/12 04:20:42;;;;;;;10.80;9.80;;;;;;;;;;4959358;28;20221;-67
2021/04/12 04:23:27;;;;;;;12.37;11.07;;;;;;;;;;4961563;28;20648;-68
2021/04/12 04:25:56;;;;;;;11.60;10.50;;;;;;;;;;4962909;28;20200;-66
2021/04/12 04:28:33;;;;;;;11.13;10.03;;;;;;;;;;4961950;28;20199;-66
2021/04/12 04:31:27;;;;;;;11.93;10.83;;;;;;;;;;4963118;28;20273;-67
2021/04/12 04:34:00;;;;;;;13.70;12.40;;;;;;;;;;4963951;28;20222;-67
2021/04/12 04:36:37;;;;;;;11.53;10.37;;;;;;;;;;4964398;29;20416;-67
2021/04/12 04:39:15;;;;;;;12.27;10.80;;;;;;;;;;4961892;28;20178;-66
2021/04/12 04:41:49;;;;;;;11.63;10.43;;;;;;;;;;4958213;28;20209;-67
2021/04/12 04:44:15;;;;;;;13.57;11.67;;;;;;;;;;4959157;28;20216;-67
2021/04/12 04:47:03;;;;;;;13.70;12.33;;;;;;;;;;4962552;28;20619;-67
2021/04/12 04:49:48;;;;;;;13.63;10.97;;;;;;;;;;4953947;28;20208;-67
2021/04/12 04:52:14;;;;;;;12.83;11.63;;;;;;;;;;4947574;28;20558;-67
2021/04/12 04:54:58;;;;;;;11.03;10.03;;;;;;;;;;4946682;28;20323;-67
2021/04/12 04:57:43;;;;;;;11.33;10.23;;;;;;;;;;4951333;28;20195;-67
2021/04/12 05:00:27;;;;;;;13.00;11.70;;;;;;;;;;4950415;28;20233;-68
2021/04/12 05:03:02;;;;;;;12.93;11.47;;;;;;;;;;4947604;28;20205;-64
2021/04/12 05:05:44;;;;;;;12.20;11.10;;;;;;;;;;4942735;28;20217;-68
2021/04/12 05:08:09;;;;;;;12.83;11.53;;;;;;;;;;4943192;28;20195;-65
2021/04/12 05:10:39;;;;;;;14.43;11.83;;;;;;;;;;4948608;28;20222;-68
2021/04/12 05:13:05;;;;;;;13.30;11.77;;;;;;;;;;4946823;28;20661;-67
2021/04/12 05:15:43;;;;;;;12.57;11.37;;;;;;;;;;4945274;28;20195;-67
2021/04/12 05:18:24;;;;;;;12.37;11.07;;;;;;;;;;4944540;28;20260;-66
2021/04/12 05:21:14;;;;;;;13.47;10.90;;;;;;;;;;4943295;28;20748;-66
2021/04/12 05:23:55;;;;;;;11.43;10.43;;;;;;;;;;4945245;29;20207;-65
2021/04/12 05:26:40;;;;;;;10.70;9.80;;;;;;;;;;4950923;28;20266;-65
2021/04/12 05:29:25;;;;;;;11.20;10.10;;;;;;;;;;4947178;28;20192;-66
2021/04/12 05:32:11;;;;;;;9.17;8.37;;;;;;;;;;4947291;28;20223;-64
2021/04/12 05:34:57;;;;;;;11.43;8.37;;;;;;;;;;4944000;28;20322;-68
2021/04/12 05:37:30;;;;;;;8.77;7.97;;;;;;;;;;4942095;28;20193;-67
2021/04/12 05:40:11;;;;;;;8.37;7.67;;;;;;;;;;4951491;28;20195;-65
2021/04/12 05:42:53;;;;;;;9.43;8.53;;;;;;;;;;4945865;28;20666;-66
2021/04/12 05:45:38;;;;;;;11.80;8.80;;;;;;;;;;4949660;28;20622;-65
2021/04/12 05:48:19;;;;;;;9.97;9.07;;;;;;;;;;4945732;28;20260;-66
2021/04/12 05:51:00;;;;;;;10.93;9.93;;;;;;;;;;4939192;28;20207;-67
2021/04/12 05:53:38;;;;;;;11.40;9.53;;;;;;;;;;4948791;28;20187;-66
2021/04/12 05:56:17;;;;;;;11.27;7.80;;;;;;;;;;4948866;28;20196;-67
2021/04/12 05:58:55;;;;;;;12.27;10.60;;;;;;;;;;4932515;28;20187;-64
2021/04/12 06:01:40;;;;;;;10.33;9.37;;;;;;;;;;4946842;28;20245;-66
2021/04/12 06:04:12;;;;;;;11.37;10.37;;;;;;;;;;4945981;28;20298;-67
2021/04/12 06:06:38;;;;;;;10.57;9.57;;;;;;;;;;4956720;28;20685;-68
2021/04/12 06:09:07;;;;;;;10.57;9.70;;;;;;;;;;4970209;28;20194;-67
2021/04/12 06:11:53;;;;;;;10.63;9.73;;;;;;;;;;4963821;28;20213;-67
2021/04/12 06:14:31;;;;;;;10.30;9.10;;;;;;;;;;4956365;28;20217;-67
2021/04/12 06:17:15;;;;;;;10.43;9.37;;;;;;;;;;4957255;28;20195;-66
2021/04/12 06:19:47;;;;;;;10.90;9.73;;;;;;;;;;4951037;28;20192;-66
2021/04/12 06:22:32;;;;;;;10.60;9.60;;;;;;;;;;4949562;28;20240;-67
2021/04/12 06:25:01;;;;;;;10.63;9.70;;;;;;;;;;4942229;28;20221;-67
2021/04/12 06:27:37;;;;;;;10.37;9.47;;;;;;;;;;4944926;28;20760;-68
2021/04/12 06:30:03;;;;;;;10.23;9.40;;;;;;;;;;4948416;28;20183;-65
2021/04/12 06:32:29;;;;;;;11.03;10.10;;;;;;;;;;4946343;28;20216;-66
2021/04/12 06:34:57;;;;;;;11.17;10.13;;;;;;;;;;4942872;28;20201;-67
2021/04/12 06:37:33;;;;;;;11.67;10.60;;;;;;;;;;4949005;28;20197;-68
2021/04/12 06:40:02;;;;;;;13.10;11.80;;;;;;;;;;4942769;28;20195;-67
2021/04/12 06:42:46;;;;;;;16.00;12.50;;;;;;;;;;4945131;28;20219;-68
2021/04/12 06:45:12;;;;;;;15.03;13.63;;;;;;;;;;4949271;28;20674;-65
2021/04/12 06:47:47;;;;;;;13.63;12.43;;;;;;;;;;4947732;28;20228;-67
2021/04/12 06:50:32;;;;;;;13.60;12.27;;;;;;;;;;4944689;28;20277;-70
2021/04/12 06:53:17;;;;;;;13.07;11.77;;;;;;;;;;4958025;28;20195;-68
2021/04/12 06:55:55;;;;;;;13.20;11.90;;;;;;;;;;4965417;28;20222;-68
2021/04/12 06:58:33;;;;;;;12.93;11.60;;;;;;;;;;4953767;28;20190;-66
2021/04/12 07:00:59;;;;;;;13.00;11.77;;;;;;;;;;4947702;28;20215;-67
2021/04/12 07:03:40;;;;;;;12.50;11.30;;;;;;;;;;4949096;28;20549;-66
2021/04/12 07:06:13;;;;;;;13.13;11.83;;;;;;;;;;4938937;28;20194;-65
2021/04/12 07:08:45;;;;;;;12.23;11.13;;;;;;;;;;4946166;28;21783;-67
2021/04/12 07:11:20;;;;;;;13.33;12.00;;;;;;;;;;4946362;29;20223;-67
2021/04/12 07:13:55;;;;;;;13.50;12.20;;;;;;;;;;4945775;28;20603;-66
2021/04/12 07:16:24;;;;;;;13.63;11.93;;;;;;;;;;4946339;28;20222;-65
2021/04/12 07:19:05;;;;;;;13.00;11.70;;;;;;;;;;4942237;28;20187;-66
2021/04/12 07:21:44;;;;;;;12.97;11.73;;;;;;;;;;4947976;28;20646;-65
2021/04/12 07:24:25;;;;;;;12.30;11.00;;;;;;;;;;4952967;28;20241;-65
2021/04/12 07:27:10;;;;;;;12.87;11.47;;;;;;;;;;4951776;28;20191;-67
2021/04/12 07:29:53;;;;;;;12.40;11.23;;;;;;;;;;4952400;28;20273;-67
2021/04/12 07:32:38;;;;;;;13.07;11.77;;;;;;;;;;4943777;28;20250;-66
2021/04/12 07:35:16;;;;;;;13.17;11.87;;;;;;;;;;4950641;29;20193;-66
2021/04/12 07:38:01;;;;;;;13.53;12.03;;;;;;;;;;4949284;28;20196;-67
2021/04/12 07:40:46;;;;;;;13.67;12.27;;;;;;;;;;4950778;28;20306;-66
2021/04/12 07:43:27;;;;;;;13.83;12.53;;;;;;;;;;4949101;28;20198;-65
2021/04/12 07:46:14;;;;;;;15.03;13.47;;;;;;;;;;4950485;28;20224;-65
2021/04/12 07:48:59;;;;;;;14.97;13.27;;;;;;;;;;4948948;28;20206;-66
2021/04/12 07:51:31;;;;;;;16.20;14.70;;;;;;;;;;4951927;28;20215;-68
2021/04/12 07:54:03;;;;;;;16.77;15.07;;;;;;;;;;4955609;28;20203;-66
2021/04/12 07:56:47;;;;;;;15.70;14.17;;;;;;;;;;4947532;28;20200;-65
2021/04/12 07:59:19;;;;;;;17.73;15.97;;;;;;;;;;4949355;28;20901;-66
2021/04/12 08:01:58;;;;;;;19.33;16.20;;;;;;;;;;4947514;28;20232;-66
2021/04/12 08:04:24;;;;;;;19.90;17.07;;;;;;;;;;4954344;28;20213;-67
2021/04/12 08:06:59;;;;;;;21.83;18.07;;;;;;;;;;4948094;28;20206;-66
2021/04/12 08:09:28;;;;;;;21.30;19.10;;;;;;;;;;4947300;28;20188;-65
2021/04/12 08:11:54;;;;;;;20.80;18.17;;;;;;;;;;4952513;29;20217;-68
2021/04/12 08:14:32;;;;;;;21.30;19.00;;;;;;;;;;4949834;28;20200;-67
2021/04/12 08:17:01;;;;;;;23.00;20.40;;;;;;;;;;4948313;28;20203;-67
2021/04/12 08:19:27;;;;;;;21.87;19.57;;;;;;;;;;4949151;28;20209;-66
2021/04/12 08:22:13;;;;;;;21.60;18.00;;;;;;;;;;4950279;28;20205;-65
2021/04/12 08:24:44;;;;;;;20.80;18.10;;;;;;;;;;4958929;28;20210;-66
2021/04/12 08:27:29;;;;;;;22.63;20.23;;;;;;;;;;4958273;28;20646;-65
2021/04/12 08:29:55;;;;;;;23.77;21.23;;;;;;;;;;4944891;28;20249;-65
2021/04/12 08:32:24;;;;;;;22.33;20.00;;;;;;;;;;4952832;28;20214;-64
2021/04/12 08:34:56;;;;;;;19.90;17.50;;;;;;;;;;4952654;28;20197;-66
2021/04/12 08:37:25;;;;;;;17.83;15.93;;;;;;;;;;4951072;28;20205;-67
2021/04/12 08:40:10;;;;;;;15.70;14.17;;;;;;;;;;4950561;28;20195;-65
2021/04/12 08:42:51;;;;;;;15.30;13.80;;;;;;;;;;4945870;28;20198;-65
2021/04/12 08:45:27;;;;;;;15.07;13.57;;;;;;;;;;4945373;28;20214;-64
2021/04/12 08:48:13;;;;;;;14.30;12.93;;;;;;;;;;4949803;28;20205;-66
2021/04/12 08:50:42;;;;;;;14.73;13.37;;;;;;;;;;4950361;28;20206;-67
2021/04/12 08:53:17;;;;;;;14.63;13.13;;;;;;;;;;4955581;28;20247;-66
2021/04/12 08:56:06;;;;;;;16.20;14.13;;;;;;;;;;4946210;29;20190;-66
2021/04/12 08:58:50;;;;;;;14.73;13.07;;;;;;;;;;4948395;28;20194;-65
2021/04/12 09:01:22;;;;;;;14.50;13.10;;;;;;;;;;4945650;28;20219;-65
2021/04/12 09:03:59;;;;;;;13.37;12.17;;;;;;;;;;4945988;28;20202;-67
2021/04/12 09:06:31;;;;;;;13.90;12.63;;;;;;;;;;4949608;28;20200;-68
2021/04/12 09:09:00;;;;;;;15.07;13.10;;;;;;;;;;4950283;28;20187;-66
2021/04/12 09:11:45;;;;;;;13.33;12.13;;;;;;;;;;4951925;28;20243;-65
2021/04/12 09:14:17;;;;;;;14.43;12.23;;;;;;;;;;4968815;28;20224;-67
2021/04/12 09:17:02;;;;;;;13.77;12.27;;;;;;;;;;4966719;28;20201;-69
2021/04/12 09:19:44;;;;;;;12.60;11.40;;;;;;;;;;4956752;28;20194;-66
2021/04/12 09:22:22;;;;;;;12.93;11.73;;;;;;;;;;4964569;28;20275;-65
2021/04/12 09:25:07;;;;;;;12.83;11.47;;;;;;;;;;4960322;28;20589;-67
2021/04/12 09:27:33;;;;;;;12.53;11.17;;;;;;;;;;4956956;28;20191;-67
2021/04/12 09:30:06;;;;;;;12.37;11.27;;;;;;;;;;4954142;28;20218;-67
2021/04/12 09:32:51;;;;;;;10.97;10.03;;;;;;;;;;4952710;28;20240;-66
2021/04/12 09:35:35;;;;;;;11.03;10.00;;;;;;;;;;4949099;28;20206;-67
2021/04/12 09:38:16;;;;;;;10.17;9.07;;;;;;;;;;4950005;28;20206;-66
2021/04/12 09:41:21;;;;;;;10.80;9.77;;;;;;;;;;4942554;28;20560;-66
2021/04/12 09:44:06;;;;;;;9.80;8.83;;;;;;;;;;4923513;29;20679;-65
2021/04/12 09:46:47;;;;;;;11.13;9.90;;;;;;;;;;4927528;29;20195;-67
2021/04/12 09:49:13;;;;;;;10.53;9.43;;;;;;;;;;4909930;29;20322;-67
2021/04/12 09:51:50;;;;;;;9.93;8.93;;;;;;;;;;4923060;29;20322;-66
2021/04/12 09:54:34;;;;;;;9.67;8.67;;;;;;;;;;4929131;29;20711;-65
2021/04/12 09:57:19;;;;;;;9.30;8.13;;;;;;;;;;4924166;29;20308;-67
2021/04/12 09:59:48;;;;;;;9.77;8.23;;;;;;;;;;4927977;29;20187;-65
2021/04/12 10:02:23;;;;;;;8.40;7.70;;;;;;;;;;4926334;29;20271;-66
2021/04/12 10:04:49;;;;;;;9.03;7.20;;;;;;;;;;4930902;29;20307;-65
2021/04/12 10:07:15;;;;;;;7.40;6.60;;;;;;;;;;4927512;29;20226;-67
2021/04/12 10:10:00;;;;;;;8.53;6.37;;;;;;;;;;4927208;29;20190;-66
2021/04/12 10:12:32;;;;;;;7.10;6.50;;;;;;;;;;4912611;29;20211;-66
2021/04/12 10:15:06;;;;;;;10.00;5.80;;;;;;;;;;4938436;28;20228;-66
2021/04/12 10:17:46;;;;;;;11.17;7.13;;;;;;;;;;4945171;28;20201;-66
2021/04/12 10:20:20;;;;;;;12.00;8.03;;;;;;;;;;4951214;28;20191;-66
2021/04/12 10:22:46;;;;;;;42.07;27.57;;;;;;;;;;4947390;28;20781;-66
2021/04/12 10:25:14;;;;;;;22.13;15.47;;;;;;;;;;4945567;28;20221;-65
2021/04/12 10:27:44;;;;;;;13.10;10.13;;;;;;;;;;4944558;28;20187;-67
2021/04/12 10:30:11;;;;;;;32.53;20.27;;;;;;;;;;4947061;28;20222;-65
2021/04/12 10:32:43;;;;;;;9.97;7.33;;;;;;;;;;4948629;28;20217;-65
2021/04/12 10:35:13;;;;;;;41.70;31.03;;;;;;;;;;4943546;28;20187;-65
2021/04/12 10:37:46;;;;;;;19.60;14.60;;;;;;;;;;4952468;28;20210;-64
2021/04/12 10:40:18;;;;;;;6.23;5.63;;;;;;;;;;4946947;28;20191;-65
2021/04/12 10:42:44;;;;;;;8.97;6.40;;;;;;;;;;4947346;28;20233;-65
2021/04/12 10:45:10;;;;;;;5.13;4.60;;;;;;;;;;4944813;28;20230;-65
2021/04/12 10:47:58;;;;;;;8.17;4.43;;;;;;;;;;4946547;28;20532;-64
2021/04/12 10:50:29;;;;;;;5.80;4.63;;;;;;;;;;4948345;28;20194;-66
2021/04/12 10:53:22;;;;;;;4.57;4.17;;;;;;;;;;4950812;28;20186;-65
2021/04/12 10:55:54;;;;;;;5.50;4.57;;;;;;;;;;4949683;28;20277;-66
2021/04/12 10:58:23;;;;;;;4.70;4.20;;;;;;;;;;4946829;28;20684;-67
2021/04/12 11:00:59;;;;;;;5.07;4.57;;;;;;;;;;4949098;28;20215;-65
2021/04/12 11:03:25;;;;;;;5.90;5.17;;;;;;;;;;4948414;28;20700;-66
2021/04/12 11:06:04;;;;;;;4.97;4.47;;;;;;;;;;4945182;28;20217;-68
2021/04/12 11:08:39;;;;;;;5.30;4.80;;;;;;;;;;4944691;28;20202;-67
2021/04/12 11:11:23;;;;;;;5.17;4.67;;;;;;;;;;4942568;28;20764;-65
2021/04/12 11:13:54;;;;;;;4.63;3.63;;;;;;;;;;4945013;28;20187;-65
2021/04/12 11:16:33;;;;;;;4.90;4.50;;;;;;;;;;4944147;28;20198;-65
2021/04/12 11:19:17;;;;;;;5.07;3.57;;;;;;;;;;4933372;28;20689;-66
2021/04/12 11:22:03;;;;;;;2.90;2.67;;;;;;;;;;4943193;28;20217;-65
2021/04/12 11:24:48;;;;;;;4.87;3.53;;;;;;;;;;4951655;28;20223;-65
2021/04/12 11:27:32;;;;;;;3.50;3.20;;;;;;;;;;4948226;28;20273;-66
2021/04/12 11:30:17;;;;;;;3.70;3.30;;;;;;;;;;4940654;28;20281;-67
2021/04/12 11:33:02;;;;;;;6.57;3.70;;;;;;;;;;4941478;28;20190;-66
2021/04/12 11:35:38;;;;;;;3.87;3.20;;;;;;;;;;4939130;28;20199;-68
2021/04/12 11:38:13;;;;;;;5.10;3.30;;;;;;;;;;4942666;29;20197;-66
2021/04/12 11:40:58;;;;;;;4.47;3.40;;;;;;;;;;4944263;28;20311;-66
2021/04/12 11:43:33;;;;;;;4.70;3.60;;;;;;;;;;4943543;28;20223;-65
2021/04/12 11:46:06;;;;;;;3.83;3.53;;;;;;;;;;4939955;28;20303;-66
2021/04/12 11:48:48;;;;;;;4.60;3.57;;;;;;;;;;4946062;28;20651;-67
2021/04/12 11:51:32;;;;;;;4.47;3.63;;;;;;;;;;4942344;28;20206;-67
2021/04/12 11:54:00;;;;;;;3.90;3.60;;;;;;;;;;4948005;28;20202;-66
2021/04/12 11:56:35;;;;;;;4.03;3.57;;;;;;;;;;4941246;28;20200;-66
2021/04/12 11:59:20;;;;;;;5.63;3.70;;;;;;;;;;4943769;28;20630;-65
2021/04/12 12:02:18;;;;;;;6.43;3.43;;;;;;;;;;4947672;28;20215;-65
2021/04/12 12:04:51;;;;;;;4.30;3.87;;;;;;;;;;4958289;28;20245;-66
2021/04/12 12:07:20;;;;;;;6.37;3.10;;;;;;;;;;4946156;28;20187;-65
2021/04/12 12:09:50;;;;;;;6.77;3.90;;;;;;;;;;4949642;28;20729;-67
2021/04/12 12:12:19;;;;;;;4.70;2.83;;;;;;;;;;4942595;28;20869;-66
2021/04/12 12:14:52;;;;;;;2.72;2.53;;;;;;;;;;4945987;28;20646;-66
2021/04/12 12:17:20;;;;;;;2.78;2.35;;;;;;;;;;4954763;28;20720;-69
2021/04/12 12:19:54;;;;;;;3.53;2.60;;;;;;;;;;4964755;28;20195;-66
2021/04/12 12:22:23;;;;;;;3.15;2.50;;;;;;;;;;4962702;28;20247;-66
2021/04/12 12:24:52;;;;;;;5.00;3.53;;;;;;;;;;4950676;28;20211;-68
2021/04/12 12:27:28;;;;;;;2.75;2.50;;;;;;;;;;4958260;28;20193;-66
2021/04/12 12:30:03;;;;;;;3.90;2.70;;;;;;;;;;4953925;28;20735;-67
2021/04/12 12:32:35;;;;;;;2.72;2.53;;;;;;;;;;4951106;28;20261;-65
2021/04/12 12:35:03;;;;;;;4.22;2.72;;;;;;;;;;4946359;28;20202;-65
2021/04/12 12:37:48;;;;;;;4.80;2.83;;;;;;;;;;4943896;28;20222;-66
2021/04/12 12:40:17;;;;;;;4.22;2.97;;;;;;;;;;4945809;28;20624;-66
2021/04/12 12:42:48;;;;;;;4.50;3.85;;;;;;;;;;4947049;28;20210;-65
2021/04/12 12:45:39;;;;;;;4.10;3.40;;;;;;;;;;4947585;28;20203;-64
2021/04/12 12:48:06;;;;;;;3.67;3.00;;;;;;;;;;4948668;28;20618;-66
2021/04/12 12:50:41;;;;;;;3.50;3.10;;;;;;;;;;4946409;28;20233;-66
2021/04/12 12:53:10;;;;;;;8.90;3.40;;;;;;;;;;4943787;28;20195;-66
2021/04/12 12:55:59;;;;;;;10.53;4.37;;;;;;;;;;4947045;28;20205;-67
2021/04/12 12:58:26;;;;;;;6.37;4.50;;;;;;;;;;4937312;28;20202;-66
2021/04/12 13:00:54;;;;;;;5.17;4.07;;;;;;;;;;4948897;28;20238;-65
2021/04/12 13:03:28;;;;;;;4.90;3.30;;;;;;;;;;4948008;28;20666;-66
2021/04/12 13:05:56;;;;;;;6.10;3.57;;;;;;;;;;4946216;28;20230;-65
2021/04/12 13:08:23;;;;;;;4.17;3.13;;;;;;;;;;4943359;28;20188;-64
2021/04/12 13:10:50;;;;;;;5.13;4.00;;;;;;;;;;4947166;28;20286;-65
2021/04/12 13:13:18;;;;;;;7.07;4.50;;;;;;;;;;4946144;28;20213;-66
2021/04/12 13:15:45;;;;;;;4.80;3.80;;;;;;;;;;4946466;28;20270;-64
2021/04/12 13:18:23;;;;;;;8.13;4.00;;;;;;;;;;4941753;28;20245;-64
2021/04/12 13:20:50;;;;;;;3.47;3.00;;;;;;;;;;4946449;28;20623;-66
2021/04/12 13:23:19;;;;;;;4.47;3.30;;;;;;;;;;4948367;28;20607;-64
2021/04/12 13:25:46;;;;;;;3.83;3.30;;;;;;;;;;4964351;28;20605;-67
2021/04/12 13:28:19;;;;;;;2.90;2.53;;;;;;;;;;4946099;28;20179;-65
2021/04/12 13:30:49;;;;;;;3.00;2.73;;;;;;;;;;4947399;28;20761;-67
2021/04/12 13:33:44;;;;;;;2.53;2.33;;;;;;;;;;4946585;29;20293;-64
2021/04/12 13:36:21;;;;;;;2.30;2.10;;;;;;;;;;4943492;29;20210;-66
2021/04/12 13:38:49;;;;;;;5.03;2.88;;;;;;;;;;4949534;29;20186;-65
2021/04/12 13:41:22;;;;;;;3.60;2.70;;;;;;;;;;4962222;28;20207;-66
2021/04/12 13:43:50;;;;;;;4.63;2.90;;;;;;;;;;4948481;28;20250;-66
2021/04/12 13:46:19;;;;;;;3.55;2.97;;;;;;;;;;4942120;28;20324;-65
2021/04/12 13:49:01;;;;;;;3.50;3.10;;;;;;;;;;4947214;28;20668;-64
2021/04/12 13:51:34;;;;;;;4.93;3.23;;;;;;;;;;4943961;28;20243;-66
2021/04/12 13:54:06;;;;;;;2.50;2.30;;;;;;;;;;4948270;28;20198;-68
2021/04/12 13:56:32;;;;;;;4.53;2.30;;;;;;;;;;4947691;28;20199;-65
2021/04/12 13:59:07;;;;;;;2.03;1.93;;;;;;;;;;4945033;28;20191;-64
2021/04/12 14:01:45;;;;;;;2.37;2.13;;;;;;;;;;4946815;28;20225;-64
2021/04/12 14:04:15;;;;;;;6.93;2.33;;;;;;;;;;4949869;28;20257;-66
2021/04/12 14:07:17;;;;;;;2.33;2.07;;;;;;;;;;4947491;28;20195;-65
2021/04/12 14:09:45;;;;;;;3.23;2.40;;;;;;;;;;4957959;28;20688;-65
2021/04/12 14:12:21;;;;;;;2.47;2.10;;;;;;;;;;4945936;28;20231;-65
2021/04/12 14:15:07;;;;;;;3.80;2.53;;;;;;;;;;4947165;28;20195;-64
2021/04/12 14:17:39;;;;;;;3.30;2.77;;;;;;;;;;4946708;28;20329;-64
2021/04/12 14:20:08;;;;;;;2.60;2.10;;;;;;;;;;4948569;28;20732;-66
2021/04/12 14:22:35;;;;;;;2.73;2.40;;;;;;;;;;4949269;28;20421;-66
2021/04/12 14:25:14;;;;;;;3.70;2.20;;;;;;;;;;4943998;28;20231;-67
2021/04/12 14:27:42;;;;;;;2.60;2.10;;;;;;;;;;4945360;28;20187;-65
2021/04/12 14:30:16;;;;;;;4.60;4.20;;;;;;;;;;4948935;28;20191;-64
2021/04/12 14:32:50;;;;;;;3.27;2.60;;;;;;;;;;4947157;28;20187;-64
2021/04/12 14:35:27;;;;;;;7.33;4.40;;;;;;;;;;4946281;28;20191;-64
2021/04/12 14:37:54;;;;;;;4.87;4.33;;;;;;;;;;4942923;28;20194;-66
2021/04/12 14:40:23;;;;;;;4.40;3.53;;;;;;;;;;4946226;28;20206;-67
2021/04/12 14:42:54;;;;;;;3.93;2.53;;;;;;;;;;4945741;28;20600;-65
2021/04/12 14:45:24;;;;;;;5.53;2.37;;;;;;;;;;4946725;28;20214;-64
2021/04/12 14:47:56;;;;;;;2.57;2.30;;;;;;;;;;4943525;28;20195;-65
2021/04/12 14:50:24;;;;;;;3.60;3.23;;;;;;;;;;4947434;28;20222;-64
2021/04/12 14:52:58;;;;;;;5.17;2.90;;;;;;;;;;4945368;29;20621;-65
2021/04/12 14:55:28;;;;;;;3.40;2.83;;;;;;;;;;4942891;28;20207;-64
2021/04/12 14:58:04;;;;;;;2.87;2.30;;;;;;;;;;4948102;28;20206;-65
2021/04/12 15:00:35;;;;;;;6.70;2.80;;;;;;;;;;4941873;28;20191;-66
2021/04/12 15:03:04;;;;;;;2.30;2.10;;;;;;;;;;4943696;28;20224;-64
2021/04/12 15:05:36;;;;;;;5.80;2.43;;;;;;;;;;4944644;28;20219;-64
2021/04/12 15:08:03;;;;;;;4.22;2.05;;;;;;;;;;4945469;28;20762;-65
2021/04/12 15:10:32;;;;;;;2.37;1.70;;;;;;;;;;4945847;28;20187;-66
2021/04/12 15:13:02;;;;;;;1.60;1.50;;;;;;;;;;4945321;28;20205;-66
2021/04/12 15:15:39;;;;;;;3.35;2.20;;;;;;;;;;4948790;28;20258;-68
2021/04/12 15:18:11;;;;;;;3.28;2.08;;;;;;;;;;4945097;28;20196;-65
2021/04/12 15:20:39;;;;;;;2.60;2.00;;;;;;;;;;4948320;28;20720;-68
2021/04/12 15:23:24;;;;;;;2.75;1.80;;;;;;;;;;4942991;28;20274;-68
2021/04/12 15:25:50;;;;;;;4.03;1.80;;;;;;;;;;4965386;28;20210;-65